createdAt,value
2023-01-17T00:00:34.001Z,0.93
2023-01-17T00:03:00.600Z,1.58
2023-01-17T00:05:27.164Z,1.05
2023-01-17T00:07:53.664Z,1.30
2023-01-17T00:10:25.086Z,1.33
2023-01-17T00:12:53.187Z,2.03
2023-01-17T00:15:20.461Z,2.65
2023-01-17T00:17:47.780Z,2.15
2023-01-17T00:20:15.194Z,1.80
2023-01-17T00:22:43.387Z,2.83
2023-01-17T00:25:11.458Z,1.30
2023-01-17T00:27:39.328Z,2.58
2023-01-17T00:30:07.315Z,1.52
2023-01-17T00:32:33.806Z,3.17
2023-01-17T00:35:00.237Z,2.88
2023-01-17T00:37:26.689Z,1.88
2023-01-17T00:39:53.182Z,2.05
2023-01-17T00:42:19.650Z,1.63
2023-01-17T00:44:47.466Z,1.85
2023-01-17T00:47:14.014Z,1.52
2023-01-17T00:49:40.489Z,1.75
2023-01-17T00:52:07.002Z,1.73
2023-01-17T00:54:33.504Z,1.67
2023-01-17T00:57:00.007Z,0.80
2023-01-17T00:59:26.544Z,1.10
2023-01-17T01:01:54.615Z,1.17
2023-01-17T01:04:21.183Z,1.20
2023-01-17T01:06:47.727Z,1.27
2023-01-17T01:09:14.247Z,0.98
2023-01-17T01:11:40.872Z,2.22
2023-01-17T01:14:10.148Z,1.70
2023-01-17T01:16:36.719Z,1.45
2023-01-17T01:19:05.639Z,1.70
2023-01-17T01:21:32.343Z,1.45
2023-01-17T01:23:58.846Z,1.70
2023-01-17T01:26:25.314Z,0.85
2023-01-17T01:28:52.076Z,1.13
2023-01-17T01:31:18.708Z,0.88
2023-01-17T01:33:45.263Z,1.33
2023-01-17T01:36:13.117Z,1.02
2023-01-17T01:38:39.857Z,1.42
2023-01-17T01:41:06.666Z,1.05
2023-01-17T01:43:42.952Z,1.33
2023-01-17T01:46:12.817Z,0.90
2023-01-17T01:48:45.325Z,1.45
2023-01-17T01:51:17.376Z,1.50
2023-01-17T01:53:48.614Z,0.88
2023-01-17T01:56:16.032Z,1.40
2023-01-17T01:58:48.731Z,1.80
2023-01-17T02:01:15.763Z,1.25
2023-01-17T02:03:43.241Z,2.60
2023-01-17T02:06:25.585Z,1.42
2023-01-17T02:08:52.418Z,0.82
2023-01-17T02:11:19.172Z,1.20
2023-01-17T02:13:45.701Z,1.25
2023-01-17T02:16:27.448Z,1.63
2023-01-17T02:19:06.892Z,1.92
2023-01-17T02:21:45.008Z,2.58
2023-01-17T02:24:39.737Z,0.90
2023-01-17T02:27:10.159Z,1.48
2023-01-17T02:30:18.864Z,1.52
2023-01-17T02:33:03.284Z,1.70
2023-01-17T02:35:37.993Z,2.95
2023-01-17T02:38:17.065Z,2.72
2023-01-17T02:43:14.524Z,3.17
2023-01-17T02:45:41.827Z,3.40
2023-01-17T02:48:13.285Z,2.47
2023-01-17T02:50:58.769Z,4.35
2023-01-17T02:53:34.749Z,3.65
2023-01-17T02:56:13.717Z,3.03
2023-01-17T02:58:57.728Z,3.92
2023-01-17T03:01:33.451Z,3.83
2023-01-17T03:04:06.274Z,3.97
2023-01-17T03:06:37.397Z,4.25
2023-01-17T03:09:04.436Z,4.40
2023-01-17T03:11:31.158Z,4.47
2023-01-17T03:13:58.010Z,4.47
2023-01-17T03:16:27.747Z,4.38
2023-01-17T03:18:54.495Z,4.53
2023-01-17T03:21:23.384Z,5.15
2023-01-17T03:23:49.962Z,3.70
2023-01-17T03:26:16.453Z,4.70
2023-01-17T03:28:43.328Z,6.25
2023-01-17T03:31:09.949Z,4.85
2023-01-17T03:33:36.499Z,4.45
2023-01-17T03:36:03.372Z,6.28
2023-01-17T03:38:31.181Z,6.18
2023-01-17T03:40:57.743Z,6.30
2023-01-17T03:43:24.193Z,4.57
2023-01-17T03:45:51.454Z,4.60
2023-01-17T03:48:18.038Z,4.47
2023-01-17T03:50:44.604Z,4.93
2023-01-17T03:53:11.121Z,7.13
2023-01-17T03:55:39.159Z,4.53
2023-01-17T03:58:05.597Z,5.90
2023-01-17T04:00:32.140Z,5.75
2023-01-17T04:02:58.842Z,4.22
2023-01-17T04:05:25.319Z,4.05
2023-01-17T04:07:51.954Z,5.35
2023-01-17T04:10:18.676Z,5.63
2023-01-17T04:12:46.519Z,3.45
2023-01-17T04:15:13.044Z,4.63
2023-01-17T04:17:39.740Z,4.35
2023-01-17T04:20:07.521Z,5.43
2023-01-17T04:22:34.060Z,5.78
2023-01-17T04:25:00.613Z,4.78
2023-01-17T04:27:27.071Z,6.32
2023-01-17T04:29:54.959Z,6.30
2023-01-17T04:32:21.496Z,4.68
2023-01-17T04:34:48.041Z,6.55
2023-01-17T04:37:14.588Z,4.50
2023-01-17T04:39:41.136Z,7.50
2023-01-17T04:42:07.590Z,6.03
2023-01-17T04:44:34.067Z,4.95
2023-01-17T04:47:01.978Z,6.38
2023-01-17T04:49:28.543Z,5.50
2023-01-17T04:51:54.999Z,6.75
2023-01-17T04:54:21.617Z,5.45
2023-01-17T04:56:48.096Z,5.97
2023-01-17T04:59:14.647Z,6.45
2023-01-17T05:01:41.284Z,6.38
2023-01-17T05:04:09.300Z,5.53
2023-01-17T05:06:35.808Z,4.32
2023-01-17T05:09:02.332Z,5.03
2023-01-17T05:11:28.873Z,5.15
2023-01-17T05:13:55.384Z,7.20
2023-01-17T05:16:21.854Z,4.40
2023-01-17T05:18:51.084Z,5.03
2023-01-17T05:21:18.958Z,5.00
2023-01-17T05:23:45.484Z,6.00
2023-01-17T05:26:12.056Z,6.03
2023-01-17T05:28:38.728Z,5.43
2023-01-17T05:31:05.613Z,4.95
2023-01-17T05:33:32.497Z,8.13
2023-01-17T05:35:58.940Z,4.50
2023-01-17T05:38:26.824Z,8.02
2023-01-17T05:40:53.285Z,5.80
2023-01-17T05:43:20.330Z,4.20
2023-01-17T05:45:48.832Z,4.15
2023-01-17T05:48:15.388Z,5.35
2023-01-17T05:50:41.857Z,4.72
2023-01-17T05:53:10.641Z,5.95
2023-01-17T05:55:39.112Z,4.50
2023-01-17T05:58:07.563Z,4.55
2023-01-17T06:00:34.252Z,5.13
2023-01-17T06:03:01.226Z,6.55
2023-01-17T06:05:28.968Z,5.53
2023-01-17T06:07:55.434Z,4.60
2023-01-17T06:10:22.927Z,6.40
2023-01-17T06:12:59.868Z,4.25
2023-01-17T06:15:26.333Z,6.03
2023-01-17T06:17:52.925Z,5.10
2023-01-17T06:20:19.850Z,6.15
2023-01-17T06:22:46.354Z,6.65
2023-01-17T06:25:13.121Z,6.45
2023-01-17T06:27:39.590Z,7.07
2023-01-17T06:30:09.174Z,6.53
2023-01-17T06:32:35.699Z,9.70
2023-01-17T06:35:02.297Z,6.32
2023-01-17T06:37:28.767Z,7.55
2023-01-17T06:39:55.262Z,6.63
2023-01-17T06:42:22.291Z,7.05
2023-01-17T06:44:48.886Z,6.72
2023-01-17T06:47:16.729Z,5.40
2023-01-17T06:49:43.210Z,5.20
2023-01-17T06:52:09.704Z,6.82
2023-01-17T06:54:36.330Z,5.75
2023-01-17T06:57:02.896Z,5.43
2023-01-17T06:59:29.571Z,6.28
2023-01-17T07:01:56.499Z,7.65
2023-01-17T07:04:24.442Z,5.78
2023-01-17T07:06:50.959Z,5.75
2023-01-17T07:09:17.585Z,5.97
2023-01-17T07:11:44.304Z,5.72
2023-01-17T07:14:13.058Z,7.28
2023-01-17T07:16:39.625Z,6.82
2023-01-17T07:19:06.104Z,6.30
2023-01-17T07:21:33.978Z,4.68
2023-01-17T07:24:00.507Z,6.28
2023-01-17T07:26:27.118Z,6.60
2023-01-17T07:28:53.619Z,6.20
2023-01-17T07:31:20.168Z,7.70
2023-01-17T07:33:46.750Z,4.57
2023-01-17T07:36:13.324Z,5.90
2023-01-17T07:38:41.576Z,5.05
2023-01-17T07:41:10.408Z,5.60
2023-01-17T07:43:37.551Z,6.20
2023-01-17T07:46:06.412Z,5.10
2023-01-17T07:48:32.990Z,5.25
2023-01-17T07:50:59.540Z,6.05
2023-01-17T07:53:28.715Z,6.10
2023-01-17T07:58:26.208Z,7.40
2023-01-17T08:00:52.748Z,5.95
2023-01-17T08:03:21.081Z,8.25
2023-01-17T08:05:53.884Z,9.73
2023-01-17T08:08:20.560Z,8.07
2023-01-17T08:10:47.216Z,5.78
2023-01-17T08:13:15.351Z,6.40
2023-01-17T08:15:41.885Z,7.80
2023-01-17T08:18:08.584Z,4.90
2023-01-17T08:20:35.179Z,5.55
2023-01-17T08:23:01.711Z,5.93
2023-01-17T08:25:28.410Z,6.00
2023-01-17T08:27:57.502Z,5.97
2023-01-17T08:32:52.791Z,5.57
2023-01-17T08:35:20.269Z,6.10
2023-01-17T08:37:47.436Z,4.43
2023-01-17T08:40:15.410Z,4.78
2023-01-17T08:42:42.618Z,3.80
2023-01-17T08:45:10.438Z,4.28
2023-01-17T08:47:38.769Z,5.28
2023-01-17T08:50:06.115Z,3.70
2023-01-17T08:52:32.775Z,4.35
2023-01-17T08:54:59.251Z,4.95
2023-01-17T08:57:25.756Z,4.22
2023-01-17T08:59:52.425Z,4.82
2023-01-17T09:02:19.987Z,5.22
2023-01-17T09:04:49.286Z,3.30
2023-01-17T09:07:17.883Z,4.95
2023-01-17T09:09:44.458Z,3.90
2023-01-17T09:12:11.038Z,4.20
2023-01-17T09:14:37.758Z,4.88
2023-01-17T09:17:05.293Z,4.45
2023-01-17T09:19:31.823Z,4.43
2023-01-17T09:21:59.667Z,4.38
2023-01-17T09:24:26.221Z,4.78
2023-01-17T09:26:52.779Z,4.10
2023-01-17T09:29:21.664Z,8.63
2023-01-17T09:31:48.370Z,4.72
2023-01-17T09:34:15.321Z,3.40
2023-01-17T09:36:42.464Z,6.75
2023-01-17T09:39:11.372Z,4.43
2023-01-17T09:41:48.529Z,4.00
2023-01-17T09:44:24.064Z,5.05
2023-01-17T09:46:53.834Z,4.18
2023-01-17T09:49:32.821Z,4.97
2023-01-17T09:54:34.145Z,4.63
2023-01-17T09:57:05.641Z,3.50
2023-01-17T09:59:45.535Z,5.10
2023-01-17T10:02:36.939Z,5.40
2023-01-17T10:05:26.375Z,6.82
2023-01-17T10:08:06.401Z,4.53
2023-01-17T10:10:42.073Z,4.88
2023-01-17T10:13:30.121Z,5.07
2023-01-17T10:16:12.302Z,3.42
2023-01-17T10:19:07.710Z,3.95
2023-01-17T10:21:53.522Z,4.03
2023-01-17T10:24:43.505Z,4.53
2023-01-17T10:29:46.205Z,4.05
2023-01-17T10:32:14.475Z,4.72
2023-01-17T10:34:46.178Z,5.47
2023-01-17T10:37:19.367Z,3.53
2023-01-17T10:39:48.510Z,4.53
2023-01-17T10:42:21.645Z,6.28
2023-01-17T10:44:52.965Z,3.97
2023-01-17T10:47:22.443Z,4.53
2023-01-17T10:49:52.230Z,4.22
2023-01-17T10:52:32.585Z,3.13
2023-01-17T10:55:26.108Z,3.25
2023-01-17T10:57:54.730Z,3.47
2023-01-17T11:00:40.305Z,3.58
2023-01-17T11:03:09.535Z,5.10
2023-01-17T11:05:36.175Z,3.40
2023-01-17T11:08:05.350Z,3.45
2023-01-17T11:10:38.393Z,5.68
2023-01-17T11:13:20.276Z,4.32
2023-01-17T11:15:49.887Z,3.47
2023-01-17T11:18:18.596Z,5.05
2023-01-17T11:20:45.979Z,3.28
2023-01-17T11:23:16.031Z,5.32
2023-01-17T11:25:49.791Z,3.50
2023-01-17T11:28:24.367Z,5.03
2023-01-17T11:30:53.462Z,4.15
2023-01-17T11:35:58.379Z,5.13
2023-01-17T11:38:25.566Z,3.72
2023-01-17T11:40:52.389Z,4.47
2023-01-17T11:43:24.098Z,4.72
2023-01-17T11:46:04.988Z,4.32
2023-01-17T11:48:37.169Z,5.70
2023-01-17T11:51:11.188Z,3.05
2023-01-17T11:53:40.453Z,5.15
2023-01-17T11:56:10.169Z,8.15
2023-01-17T11:58:40.766Z,4.68
2023-01-17T12:01:23.240Z,4.35
2023-01-17T12:04:03.512Z,4.80
2023-01-17T12:06:56.751Z,4.70
2023-01-17T12:09:30.890Z,5.35
2023-01-17T12:12:06.322Z,3.83
2023-01-17T12:14:45.082Z,5.35
2023-01-17T12:17:25.219Z,3.53
2023-01-17T12:19:58.407Z,5.80
2023-01-17T12:22:36.470Z,4.78
2023-01-17T12:25:16.360Z,4.80
2023-01-17T12:27:54.857Z,5.13
2023-01-17T12:30:34.076Z,5.07
2023-01-17T12:33:11.609Z,3.10
2023-01-17T12:35:42.068Z,4.13
2023-01-17T12:38:18.051Z,6.43
2023-01-17T12:40:57.613Z,4.47
2023-01-17T12:43:29.960Z,3.35
2023-01-17T12:46:01.384Z,3.45
2023-01-17T12:48:33.945Z,3.50
2023-01-17T12:51:05.466Z,4.25
2023-01-17T12:53:39.862Z,4.53
2023-01-17T12:56:11.492Z,4.22
2023-01-17T12:58:41.582Z,3.08
2023-01-17T13:01:18.610Z,3.80
2023-01-17T13:03:53.143Z,4.50
2023-01-17T13:06:28.265Z,3.53
2023-01-17T13:08:58.006Z,6.82
2023-01-17T13:11:29.542Z,4.78
2023-01-17T13:13:56.117Z,4.78
2023-01-17T13:16:33.231Z,3.05
2023-01-17T13:19:07.795Z,5.63
2023-01-17T13:21:34.886Z,3.92
2023-01-17T13:24:15.535Z,2.55
2023-01-17T13:26:59.855Z,3.47
2023-01-17T13:29:36.131Z,4.75
2023-01-17T13:32:12.800Z,4.38
2023-01-17T13:34:53.885Z,3.75
2023-01-17T13:37:39.055Z,3.47
2023-01-17T13:40:29.717Z,4.65
2023-01-17T13:42:59.443Z,2.72
2023-01-17T13:45:28.133Z,2.28
2023-01-17T13:48:26.441Z,2.50
2023-01-17T13:50:54.374Z,3.28
2023-01-17T13:53:54.314Z,3.03
2023-01-17T13:56:30.231Z,4.45
2023-01-17T13:59:05.399Z,2.83
2023-01-17T14:01:54.520Z,3.80
2023-01-17T14:04:24.123Z,3.47
2023-01-17T14:06:53.919Z,3.50
2023-01-17T14:09:27.533Z,3.03
2023-01-17T14:12:04.617Z,3.90
2023-01-17T14:14:53.993Z,2.70
2023-01-17T14:17:45.751Z,2.88
2023-01-17T14:20:49.333Z,3.10
2023-01-17T14:23:46.211Z,2.63
2023-01-17T14:26:40.912Z,3.58
2023-01-17T14:29:59.341Z,4.18
2023-01-17T14:32:29.769Z,3.20
2023-01-17T14:34:56.327Z,2.22
2023-01-17T14:37:33.207Z,2.45
2023-01-17T14:40:01.131Z,3.25
2023-01-17T14:42:30.590Z,4.50
2023-01-17T14:45:02.019Z,3.58
2023-01-17T14:47:32.025Z,4.07
2023-01-17T14:50:18.755Z,3.72
2023-01-17T14:52:46.640Z,3.50
2023-01-17T14:55:16.235Z,4.57
2023-01-17T14:57:42.771Z,3.50
2023-01-17T15:00:12.528Z,4.60
2023-01-17T15:02:42.499Z,2.95
2023-01-17T15:05:15.901Z,3.38
2023-01-17T15:07:45.324Z,3.33
2023-01-17T15:10:16.162Z,6.15
2023-01-17T15:12:43.348Z,3.53
2023-01-17T15:15:28.518Z,4.50
2023-01-17T15:18:08.826Z,4.63
2023-01-17T15:20:37.254Z,4.40
2023-01-17T15:23:04.119Z,3.08
2023-01-17T15:25:34.665Z,2.58
2023-01-17T15:28:01.509Z,3.35
2023-01-17T15:30:27.974Z,4.45
2023-01-17T15:32:54.540Z,1.88
2023-01-17T15:35:24.217Z,3.25
2023-01-17T15:37:54.270Z,3.00
2023-01-17T15:40:22.865Z,4.30
2023-01-17T15:42:52.838Z,4.78
2023-01-17T15:45:24.369Z,4.18
2023-01-17T15:47:50.993Z,6.65
2023-01-17T15:50:27.461Z,6.10
2023-01-17T15:52:55.792Z,5.65
2023-01-17T15:55:24.335Z,6.53
2023-01-17T15:57:52.214Z,7.18
2023-01-17T16:00:21.481Z,7.03
2023-01-17T16:02:49.354Z,6.60
2023-01-17T16:05:31.585Z,4.80
2023-01-17T16:08:22.803Z,8.63
2023-01-17T16:10:53.485Z,6.07
2023-01-17T16:13:21.402Z,6.32
2023-01-17T16:15:47.907Z,7.45
2023-01-17T16:18:17.587Z,6.63
2023-01-17T16:20:47.526Z,5.82
2023-01-17T16:23:14.164Z,7.93
2023-01-17T16:25:40.826Z,6.30
2023-01-17T16:28:07.304Z,6.95
2023-01-17T16:30:35.441Z,6.93
2023-01-17T16:33:03.517Z,6.70
2023-01-17T16:35:32.936Z,6.70
2023-01-17T16:38:00.938Z,3.97
2023-01-17T16:40:29.090Z,5.85
2023-01-17T16:42:55.892Z,6.22
2023-01-17T16:45:23.026Z,6.47
2023-01-17T16:47:53.182Z,7.20
2023-01-17T16:50:22.383Z,9.75
2023-01-17T16:52:48.917Z,7.95
2023-01-17T16:55:17.171Z,8.32
2023-01-17T16:57:43.683Z,9.83
2023-01-17T17:00:14.024Z,10.80
2023-01-17T17:02:40.875Z,8.63
2023-01-17T17:05:10.368Z,7.60
2023-01-17T17:07:38.202Z,5.45
2023-01-17T17:10:05.644Z,10.40
2023-01-17T17:12:32.230Z,7.18
2023-01-17T17:14:58.712Z,8.32
2023-01-17T17:17:25.375Z,6.97
2023-01-17T17:19:51.916Z,10.45
2023-01-17T17:22:19.740Z,8.98
2023-01-17T17:24:46.163Z,11.57
2023-01-17T17:27:12.663Z,12.35
2023-01-17T17:29:39.104Z,5.30
2023-01-17T17:32:05.570Z,7.85
2023-01-17T17:34:32.045Z,11.13
2023-01-17T17:36:58.584Z,6.80
2023-01-17T17:39:26.389Z,7.80
2023-01-17T17:41:52.843Z,7.13
2023-01-17T17:44:19.307Z,6.40
2023-01-17T17:46:45.807Z,5.20
2023-01-17T17:49:12.254Z,7.07
2023-01-17T17:51:39.969Z,5.85
2023-01-17T17:54:08.083Z,7.22
2023-01-17T17:56:37.155Z,7.07
2023-01-17T18:01:31.168Z,4.90
2023-01-17T18:04:01.810Z,6.88
2023-01-17T18:06:28.758Z,6.07
2023-01-17T18:08:55.559Z,8.20
2023-01-17T18:11:24.251Z,5.50
2023-01-17T18:13:53.390Z,7.07
2023-01-17T18:16:25.934Z,7.07
2023-01-17T18:18:55.095Z,9.07
2023-01-17T18:23:52.562Z,5.35
2023-01-17T18:26:21.184Z,6.65
2023-01-17T18:28:47.876Z,9.32
2023-01-17T18:31:15.795Z,7.35
2023-01-17T18:33:42.264Z,6.35
2023-01-17T18:36:10.775Z,7.22
2023-01-17T18:38:37.861Z,5.18
2023-01-17T18:41:05.705Z,4.85
2023-01-17T18:43:32.612Z,6.43
2023-01-17T18:45:59.155Z,6.35
2023-01-17T18:48:27.387Z,8.25
2023-01-17T18:50:58.507Z,8.37
2023-01-17T18:53:25.777Z,12.88
2023-01-17T18:55:56.880Z,10.93
2023-01-17T18:58:24.525Z,9.27
2023-01-17T19:00:51.492Z,8.15
2023-01-17T19:03:18.714Z,7.43
2023-01-17T19:05:46.858Z,6.80
2023-01-17T19:08:13.684Z,5.93
2023-01-17T19:10:40.230Z,9.07
2023-01-17T19:13:06.779Z,4.95
2023-01-17T19:15:33.310Z,5.15
2023-01-17T19:17:59.743Z,5.55
2023-01-17T19:20:26.265Z,7.18
2023-01-17T19:22:54.122Z,4.63
2023-01-17T19:25:20.739Z,7.45
2023-01-17T19:27:47.195Z,7.63
2023-01-17T19:30:14.050Z,7.82
2023-01-17T19:32:40.487Z,10.13
2023-01-17T19:35:07.296Z,8.45
2023-01-17T19:37:33.819Z,9.90
2023-01-17T19:40:01.632Z,12.02
2023-01-17T19:42:28.266Z,11.10
2023-01-17T19:44:54.702Z,9.82
2023-01-17T19:47:21.171Z,5.82
2023-01-17T19:49:49.764Z,5.55
2023-01-17T19:52:16.199Z,6.43
2023-01-17T19:54:42.627Z,4.38
2023-01-17T19:57:10.422Z,6.00
2023-01-17T19:59:36.876Z,5.25
2023-01-17T20:02:03.425Z,7.70
2023-01-17T20:04:30.179Z,8.57
2023-01-17T20:06:56.633Z,7.93
2023-01-17T20:09:23.177Z,5.88
2023-01-17T20:11:49.711Z,6.53
2023-01-17T20:14:17.485Z,4.78
2023-01-17T20:16:43.986Z,8.93
2023-01-17T20:19:10.539Z,5.95
2023-01-17T20:21:37.029Z,8.35
2023-01-17T20:24:03.924Z,6.85
2023-01-17T20:26:32.804Z,6.50
2023-01-17T20:28:59.323Z,6.57
2023-01-17T20:31:27.452Z,8.85
2023-01-17T20:33:55.626Z,7.67
2023-01-17T20:36:24.301Z,7.40
2023-01-17T20:38:51.020Z,8.52
2023-01-17T20:41:19.504Z,6.85
2023-01-17T20:43:48.172Z,8.95
2023-01-17T20:46:15.329Z,7.30
2023-01-17T20:48:47.752Z,7.50
2023-01-17T20:51:17.674Z,8.52
2023-01-17T20:53:45.606Z,11.18
2023-01-17T20:56:13.848Z,21.10
2023-01-17T20:58:42.058Z,25.02
2023-01-17T21:01:10.974Z,19.83
2023-01-17T21:03:41.394Z,13.02
2023-01-17T21:06:11.432Z,15.45
2023-01-17T21:08:39.435Z,8.50
2023-01-17T21:11:07.791Z,7.32
2023-01-17T21:13:35.029Z,7.72
2023-01-17T21:16:01.762Z,9.48
2023-01-17T21:18:29.419Z,8.50
2023-01-17T21:21:02.118Z,7.82
2023-01-17T21:23:30.033Z,7.45
2023-01-17T21:25:57.207Z,7.30
2023-01-17T21:28:25.413Z,9.18
2023-01-17T21:30:52.091Z,6.67
2023-01-17T21:33:19.795Z,6.72
2023-01-17T21:35:46.577Z,8.10
2023-01-17T21:38:13.837Z,8.57
2023-01-17T21:40:42.635Z,7.35
2023-01-17T21:43:15.479Z,6.90
2023-01-17T21:45:42.343Z,8.40
2023-01-17T21:48:10.951Z,6.70
2023-01-17T21:50:37.755Z,7.90
2023-01-17T21:53:04.415Z,7.47
2023-01-17T21:55:30.947Z,8.90
2023-01-17T21:57:59.406Z,10.52
2023-01-17T22:00:26.114Z,16.20
2023-01-17T22:02:52.727Z,9.70
2023-01-17T22:05:19.248Z,15.20
2023-01-17T22:07:45.771Z,11.48
2023-01-17T22:10:12.223Z,16.33
2023-01-17T22:12:38.664Z,12.88
2023-01-17T22:15:08.027Z,14.98
2023-01-17T22:17:34.520Z,8.50
2023-01-17T22:20:00.955Z,10.27
2023-01-17T22:22:31.733Z,10.85
2023-01-17T22:24:58.184Z,7.35
2023-01-17T22:27:24.640Z,6.90
2023-01-17T22:29:51.140Z,9.00
2023-01-17T22:32:18.955Z,10.13
2023-01-17T22:34:45.392Z,9.43
2023-01-17T22:37:11.880Z,5.00
2023-01-17T22:39:38.774Z,6.15
2023-01-17T22:42:05.328Z,9.75
2023-01-17T22:44:31.795Z,7.72
2023-01-17T22:46:58.319Z,12.15
2023-01-17T22:49:26.158Z,9.55
2023-01-17T22:51:52.629Z,11.55
2023-01-17T22:54:19.117Z,9.57
2023-01-17T22:56:45.565Z,9.10
2023-01-17T22:59:12.013Z,8.10
2023-01-17T23:01:39.229Z,9.18
2023-01-17T23:04:06.291Z,8.55
2023-01-17T23:06:35.816Z,7.75
2023-01-17T23:09:05.560Z,8.57
2023-01-17T23:11:33.998Z,7.97
2023-01-17T23:14:00.470Z,7.65
2023-01-17T23:16:26.962Z,7.05
2023-01-17T23:18:53.433Z,8.35
2023-01-17T23:21:19.917Z,9.13
2023-01-17T23:23:47.746Z,6.10
2023-01-17T23:26:14.309Z,8.80
2023-01-17T23:28:40.742Z,7.32
2023-01-17T23:31:07.206Z,8.15
2023-01-17T23:33:33.665Z,8.15
2023-01-17T23:36:00.098Z,6.90
2023-01-17T23:38:26.586Z,6.93
2023-01-17T23:40:59.738Z,7.78
2023-01-17T23:43:26.178Z,6.65
2023-01-17T23:45:54.208Z,8.20
2023-01-17T23:48:21.174Z,7.28
2023-01-17T23:50:48.349Z,8.63
2023-01-17T23:53:16.885Z,11.55
2023-01-17T23:55:43.513Z,9.77
2023-01-17T23:58:11.874Z,7.63
